KDEN/DEN METAR and TAF weather

Enter ICAO airport designator
Station Type Date Time Source
KDEN METAR 2018/04/21 10:53 UTC NOAA

KDEN 211053Z 34005KT 3/4SM R35L/P6000FT -SN BR VV004 00/00 A3011 RMK AO2 SFC VIS 1 SLP189 P0006 T00000000 $


Station Type Date Time Source
KDEN Decoded METAR 2018/04/21 10:53 UTC NOAA

DENVER INTERNATIONAL AIRPORT, CO, United States (KDEN) 39-52N 104-40W 1640M
Apr 21, 2018 - 06:53 AM EDT / 2018.04.21 1053 UTC
Wind: from the NNW (340 degrees) at 6 MPH (5 KT):0
Visibility: 3/4 mile(s):0
Sky conditions: obscured
Weather: light snow; mist
Precipitation last hour: 0.06 inches
Temperature: 32.0 F (0.0 C)
Windchill: 26 F (-3 C):1
Dew Point: 32.0 F (0.0 C)
Relative Humidity: 100%
Pressure (altimeter): 30.11 in. Hg (1019 hPa)
ob: KDEN 211053Z 34005KT 3/4SM R35L/P6000FT -SN BR VV004 00/00 A3011 RMK AO2 SFC VIS 1 SLP189 P0006 T00000000
cycle: 11

Station Type Date Time Source
KDEN TAF 2018/04/21 12:22 UTC NOAA

TAF KDEN 211120Z 2112/2218 34006KT 1SM -SN BR OVC004
FM211500 34008KT 4SM -RASN SCT005 OVC010
FM211900 05008KT P6SM BKN020 BKN050
FM220000 13010KT P6SM SCT025 BKN050
FM220600 23010KT P6SM FEW050
FM221200 26008KT P6SM FEW015
FM221600 01006KT P6SM SCT050


Example: see airport list